地図

経路データ

SID SEASON NUMBER BASIN SUBBASIN NAME ISO_TIME NATURE LAT LON WMO_WIND WMO_PRES WMO_AGENCY TRACK_TYPE DIST2LAND LANDFALL IFLAG USA_AGENCY USA_ATCF_ID USA_LAT USA_LON USA_RECORD USA_STATUS USA_WIND USA_PRES USA_SSHS USA_R34_NE USA_R34_SE USA_R34_SW USA_R34_NW USA_R50_NE USA_R50_SE USA_R50_SW USA_R50_NW USA_R64_NE USA_R64_SE USA_R64_SW USA_R64_NW USA_POCI USA_ROCI USA_RMW USA_EYE TOKYO_LAT TOKYO_LON TOKYO_GRADE TOKYO_WIND TOKYO_PRES TOKYO_R50_DIR TOKYO_R50_LONG TOKYO_R50_SHORT TOKYO_R30_DIR TOKYO_R30_LONG TOKYO_R30_SHORT TOKYO_LAND CMA_LAT CMA_LON CMA_CAT CMA_WIND CMA_PRES HKO_LAT HKO_LON HKO_CAT HKO_WIND HKO_PRES NEWDELHI_LAT NEWDELHI_LON NEWDELHI_GRADE NEWDELHI_WIND NEWDELHI_PRES NEWDELHI_CI NEWDELHI_DP NEWDELHI_POCI REUNION_LAT REUNION_LON REUNION_TYPE REUNION_WIND REUNION_PRES REUNION_TNUM REUNION_CI REUNION_RMW REUNION_R34_NE REUNION_R34_SE REUNION_R34_SW REUNION_R34_NW REUNION_R50_NE REUNION_R50_SE REUNION_R50_SW REUNION_R50_NW REUNION_R64_NE REUNION_R64_SE REUNION_R64_SW REUNION_R64_NW BOM_LAT BOM_LON BOM_TYPE BOM_WIND BOM_PRES BOM_TNUM BOM_CI BOM_RMW BOM_R34_NE BOM_R34_SE BOM_R34_SW BOM_R34_NW BOM_R50_NE BOM_R50_SE BOM_R50_SW BOM_R50_NW BOM_R64_NE BOM_R64_SE BOM_R64_SW BOM_R64_NW BOM_ROCI BOM_POCI BOM_EYE BOM_POS_METHOD BOM_PRES_METHOD NADI_LAT NADI_LON NADI_CAT NADI_WIND NADI_PRES WELLINGTON_LAT WELLINGTON_LON WELLINGTON_WIND WELLINGTON_PRES DS824_LAT DS824_LON DS824_STAGE DS824_WIND DS824_PRES TD9636_LAT TD9636_LON TD9636_STAGE TD9636_WIND TD9636_PRES TD9635_LAT TD9635_LON TD9635_WIND TD9635_PRES TD9635_ROCI NEUMANN_LAT NEUMANN_LON NEUMANN_CLASS NEUMANN_WIND NEUMANN_PRES MLC_LAT MLC_LON MLC_CLASS MLC_WIND MLC_PRES USA_GUST BOM_GUST BOM_GUST_PER REUNION_GUST REUNION_GUST_PER USA_SEAHGT USA_SEARAD_NE USA_SEARAD_SE USA_SEARAD_SW USA_SEARAD_NW STORM_SPEED STORM_DIR
1878296N24332 1878 35 NA NA NOT_NAMED 1878-10-23 06:00:00 TS 23.7000 -28.4000 main 1187 1187 _____________O -1 23.7000 -28.4000 TS 35 14 268
1878296N24332 1878 35 NA NA NOT_NAMED 1878-10-23 09:00:00 TS 23.6782 -29.1879 main 1268 1268 _____________P -1 23.6782 -29.1879 TS 35 15 270
1878296N24332 1878 35 NA NA NOT_NAMED 1878-10-23 12:00:00 TS 23.7000 -30.0000 main 1348 1348 _____________O -1 23.7000 -30.0000 TS 35 15 274
1878296N24332 1878 35 NA NA NOT_NAMED 1878-10-23 15:00:00 TS 23.7923 -30.8497 main 1430 1430 _____________P -1 23.7923 -30.8497 TS 35 16 277
1878296N24332 1878 35 NA NA NOT_NAMED 1878-10-23 18:00:00 TS 23.9000 -31.7000 main 1523 1523 _____________O -1 23.9000 -31.7000 TS 35 15 276
1878296N24332 1878 35 NA NA NOT_NAMED 1878-10-23 21:00:00 TS 23.9495 -32.5078 main 1604 1604 _____________P -1 23.9495 -32.5078 TS 35 15 274
1878296N24332 1878 35 NA NA NOT_NAMED 1878-10-24 00:00:00 TS 24.0000 -33.3000 main 1685 1685 _____________O -1 24.0000 -33.3000 TS 35 15 276
1878296N24332 1878 35 NA NA NOT_NAMED 1878-10-24 03:00:00 TS 24.0996 -34.0998 main 1767 1767 _____________P -1 24.0996 -34.0998 TS 37 15 278
1878296N24332 1878 35 NA NA NOT_NAMED 1878-10-24 06:00:00 TS 24.2000 -34.9000 main 1849 1849 _____________O -1 24.2000 -34.9000 TS 40 15 275
1878296N24332 1878 35 NA NA NOT_NAMED 1878-10-24 09:00:00 TS 24.2199 -35.7233 main 1930 1930 _____________P -1 24.2199 -35.7233 TS 40 15 274
1878296N24332 1878 35 NA NA NOT_NAMED 1878-10-24 12:00:00 TS 24.3000 -36.5000 main 2008 2008 _____________O -1 24.3000 -36.5000 TS 40 14 285
1878296N24332 1878 35 NA NA NOT_NAMED 1878-10-24 15:00:00 TS 24.5695 -37.1796 main 2066 2066 _____________P -1 24.5695 -37.1796 TS 40 13 297
1878296N24332 1878 35 NA NA NOT_NAMED 1878-10-24 18:00:00 TS 24.9000 -37.8000 main 2116 2116 _____________O -1 24.9000 -37.8000 TS 40 13 298
1878296N24332 1878 35 NA NA NOT_NAMED 1878-10-24 21:00:00 TS 25.1496 -38.4006 main 2169 2166 _____________P -1 25.1496 -38.4006 TS 40 12 295
1878296N24332 1878 35 NA NA NOT_NAMED 1878-10-25 00:00:00 TS 25.4000 -39.0000 main 2220 2220 _____________O -1 25.4000 -39.0000 TS 40 13 296
1878296N24332 1878 35 NA NA NOT_NAMED 1878-10-25 03:00:00 TS 25.6999 -39.6500 main 2271 2271 _____________P -1 25.6999 -39.6500 TS 42 13 297
1878296N24332 1878 35 NA NA NOT_NAMED 1878-10-25 06:00:00 TS 26.0000 -40.3000 main 2333 2333 _____________O -1 26.0000 -40.3000 TS 45 13 293
1878296N24332 1878 35 NA NA NOT_NAMED 1878-10-25 09:00:00 TS 26.2052 -40.9605 main 2397 2397 _____________P -1 26.2052 -40.9605 TS 45 12 295
1878296N24332 1878 35 NA NA NOT_NAMED 1878-10-25 12:00:00 TS 26.5000 -41.5000 main 2439 2400 _____________O -1 26.5000 -41.5000 TS 45 11 318
1878296N24332 1878 35 NA NA NOT_NAMED 1878-10-25 15:00:00 TS 27.0546 -41.8029 main 2390 2320 _____________P -1 27.0546 -41.8029 TS 45 13 340
1878296N24332 1878 35 NA NA NOT_NAMED 1878-10-25 18:00:00 TS 27.7000 -42.0000 main 2320 2261 _____________O -1 27.7000 -42.0000 TS 45 13 342
1878296N24332 1878 35 NA NA NOT_NAMED 1878-10-25 21:00:00 TS 28.2574 -42.2503 main 2247 2188 _____________P -1 28.2574 -42.2503 TS 45 12 338
1878296N24332 1878 35 NA NA NOT_NAMED 1878-10-26 00:00:00 TS 28.8000 -42.5000 main 2188 2129 _____________O -1 28.8000 -42.5000 TS 45 12 338
1878296N24332 1878 35 NA NA NOT_NAMED 1878-10-26 03:00:00 TS 29.3499 -42.7503 main 2125 2056 _____________P -1 29.3499 -42.7503 TS 45 12 338
1878296N24332 1878 35 NA NA NOT_NAMED 1878-10-26 06:00:00 TS 29.9000 -43.0000 main 2056 2004 _____________O -1 29.9000 -43.0000 TS 45 11 333
1878296N24332 1878 35 NA NA NOT_NAMED 1878-10-26 09:00:00 TS 30.3302 -43.3163 main 2004 1935 _____________P -1 30.3302 -43.3163 TS 45 12 339
1878296N24332 1878 35 NA NA NOT_NAMED 1878-10-26 12:00:00 TS 31.0000 -43.5000 main 1924 1806 _____________O -1 31.0000 -43.5000 TS 45 19 359
1878296N24332 1878 35 NA NA NOT_NAMED 1878-10-26 15:00:00 TS 32.2378 -43.3622 main 1806 1678 _____________P -1 32.2378 -43.3622 TS 45 27 7
1878296N24332 1878 35 NA NA NOT_NAMED 1878-10-26 18:00:00 TS 33.7000 -43.1000 main 1668 1555 _____________O -1 33.7000 -43.1000 TS 45 994 28 7
1878296N24332 1878 35 NA NA NOT_NAMED 1878-10-26 21:00:00 TS 35.0074 -42.9488 main 1550 1441 _____________P -1 35.0074 -42.9488 TS 45 26 5
1878296N24332 1878 35 NA NA NOT_NAMED 1878-10-27 00:00:00 TS 36.3000 -42.8000 main 1432 1333 _____________O -1 36.3000 -42.8000 TS 45 26 6
1878296N24332 1878 35 NA NA NOT_NAMED 1878-10-27 03:00:00 TS 37.6000 -42.6072 main 1324 1233 _____________P -1 37.6000 -42.6072 TS 45 26 7
1878296N24332 1878 35 NA NA NOT_NAMED 1878-10-27 06:00:00 TS 38.9000 -42.4000 main 1224 1126 _____________O -1 38.9000 -42.4000 TS 45 28 6
1878296N24332 1878 35 NA NA NOT_NAMED 1878-10-27 09:00:00 TS 40.3346 -42.2296 main 1126 1052 _____________P -1 40.3346 -42.2296 TS 45 26 7
1878296N24332 1878 35 NA NA NOT_NAMED 1878-10-27 12:00:00 TS 41.5000 -42.0000 main 1052 1039 _____________O -1 41.5000 -42.0000 TS 45 18 15
1878296N24332 1878 35 NA NA NOT_NAMED 1878-10-27 15:00:00 TS 42.0425 -41.6213 main 1046 1040 _____________P -1 42.0425 -41.6213 TS 45 10 37
1878296N24332 1878 35 NA NA NOT_NAMED 1878-10-27 18:00:00 TS 42.3000 -41.2000 main 1055 1055 _____________O -1 42.3000 -41.2000 TS 45 8 43
1878296N24332 1878 35 NA NA NOT_NAMED 1878-10-27 21:00:00 TS 42.6497 -40.8491 main 1066 1060 _____________P -1 42.6497 -40.8491 TS 45 9 36
1878296N24332 1878 35 NA NA NOT_NAMED 1878-10-28 00:00:00 TS 43.0000 -40.5000 main 1066 1066 _____________O -1 43.0000 -40.5000 TS 45 9 36
1878296N24332 1878 35 NA NA NOT_NAMED 1878-10-28 03:00:00 TS 43.4000 -40.1000 main 1071 1071 _____________P -1 43.4000 -40.1000 TS 42 10 36
1878296N24332 1878 35 NA NA NOT_NAMED 1878-10-28 06:00:00 TS 43.8000 -39.7000 main 1078 1078 _____________O -1 43.8000 -39.7000 TS 40 9 36
1878296N24332 1878 35 NA NA NOT_NAMED 1878-10-28 09:00:00 TS 44.1626 -39.3379 main 1087 1087 _____________P -1 44.1626 -39.3379 TS 40 9 36
1878296N24332 1878 35 NA NA NOT_NAMED 1878-10-28 12:00:00 TS 44.5000 -39.0000 main 1096 _____________O -1 44.5000 -39.0000 TS 40 8 36

IBTrACS Databaseについて

本データベースは、米国NOAAが公開する1842年以降の世界の熱帯低気圧のベストトラックデータアーカイブInternational Best Track Archive for Climate Stewardship (IBTrACS)を、ウェブで閲覧しやすい形式に変換したものです。

最終更新日:2021-12-01